sensor_id;sensor_type;location;lat;lon;timestamp;temperature;humidity
47765;DHT22;33529;49.242;8.670;2023-03-14T00:01:12;10.30;99.90
47765;DHT22;33529;49.242;8.670;2023-03-14T00:03:39;10.30;99.90
47765;DHT22;33529;49.242;8.670;2023-03-14T00:06:06;10.40;99.90
47765;DHT22;33529;49.242;8.670;2023-03-14T00:08:33;10.40;99.90
47765;DHT22;33529;49.242;8.670;2023-03-14T00:11:09;10.40;99.90
47765;DHT22;33529;49.242;8.670;2023-03-14T00:13:36;10.50;99.90
47765;DHT22;33529;49.242;8.670;2023-03-14T00:16:10;10.50;99.90
47765;DHT22;33529;49.242;8.670;2023-03-14T00:18:39;10.50;99.90
47765;DHT22;33529;49.242;8.670;2023-03-14T00:21:07;10.50;99.90
47765;DHT22;33529;49.242;8.670;2023-03-14T00:23:36;10.50;99.90
47765;DHT22;33529;49.242;8.670;2023-03-14T00:26:06;10.50;99.90
47765;DHT22;33529;49.242;8.670;2023-03-14T00:28:33;10.40;99.90
47765;DHT22;33529;49.242;8.670;2023-03-14T00:31:03;10.40;99.90
47765;DHT22;33529;49.242;8.670;2023-03-14T00:33:30;10.40;99.90
47765;DHT22;33529;49.242;8.670;2023-03-14T00:35:59;10.50;99.90
47765;DHT22;33529;49.242;8.670;2023-03-14T00:38:30;10.40;99.90
47765;DHT22;33529;49.242;8.670;2023-03-14T00:41:03;10.50;99.90
47765;DHT22;33529;49.242;8.670;2023-03-14T00:43:30;10.60;99.90
47765;DHT22;33529;49.242;8.670;2023-03-14T00:45:57;10.60;99.90
47765;DHT22;33529;49.242;8.670;2023-03-14T00:48:26;10.60;99.90
47765;DHT22;33529;49.242;8.670;2023-03-14T00:50:53;10.70;99.90
47765;DHT22;33529;49.242;8.670;2023-03-14T00:53:20;10.60;99.90
47765;DHT22;33529;49.242;8.670;2023-03-14T00:55:47;10.60;99.90
47765;DHT22;33529;49.242;8.670;2023-03-14T00:58:16;10.60;99.90
47765;DHT22;33529;49.242;8.670;2023-03-14T01:00:44;10.60;99.90
47765;DHT22;33529;49.242;8.670;2023-03-14T01:03:12;10.60;99.90
47765;DHT22;33529;49.242;8.670;2023-03-14T01:05:40;10.70;99.90
47765;DHT22;33529;49.242;8.670;2023-03-14T01:08:08;10.60;99.90
47765;DHT22;33529;49.242;8.670;2023-03-14T01:10:38;10.70;99.90
47765;DHT22;33529;49.242;8.670;2023-03-14T01:13:05;10.80;99.90
47765;DHT22;33529;49.242;8.670;2023-03-14T01:15:33;10.80;99.90
47765;DHT22;33529;49.242;8.670;2023-03-14T01:18:02;10.90;99.90
47765;DHT22;33529;49.242;8.670;2023-03-14T01:20:29;11.00;99.90
47765;DHT22;33529;49.242;8.670;2023-03-14T01:22:56;11.00;99.90
47765;DHT22;33529;49.242;8.670;2023-03-14T01:25:23;11.10;99.90
47765;DHT22;33529;49.242;8.670;2023-03-14T01:27:50;11.10;99.90
47765;DHT22;33529;49.242;8.670;2023-03-14T01:30:17;11.10;99.90
47765;DHT22;33529;49.242;8.670;2023-03-14T01:32:44;11.20;99.90
47765;DHT22;33529;49.242;8.670;2023-03-14T01:35:11;11.10;99.90
47765;DHT22;33529;49.242;8.670;2023-03-14T01:37:38;11.10;99.90
47765;DHT22;33529;49.242;8.670;2023-03-14T01:40:10;11.10;99.90
47765;DHT22;33529;49.242;8.670;2023-03-14T01:42:38;11.10;99.90
47765;DHT22;33529;49.242;8.670;2023-03-14T01:45:05;11.00;99.90
47765;DHT22;33529;49.242;8.670;2023-03-14T01:47:32;11.00;99.90
47765;DHT22;33529;49.242;8.670;2023-03-14T01:50:03;11.00;99.90
47765;DHT22;33529;49.242;8.670;2023-03-14T01:52:43;11.00;99.90
47765;DHT22;33529;49.242;8.670;2023-03-14T01:55:17;10.90;99.90
47765;DHT22;33529;49.242;8.670;2023-03-14T01:57:52;10.90;99.90
47765;DHT22;33529;49.242;8.670;2023-03-14T02:00:21;10.90;99.90
47765;DHT22;33529;49.242;8.670;2023-03-14T02:02:53;10.90;99.90
47765;DHT22;33529;49.242;8.670;2023-03-14T02:05:30;10.80;99.90
47765;DHT22;33529;49.242;8.670;2023-03-14T02:08:04;10.80;99.90
47765;DHT22;33529;49.242;8.670;2023-03-14T02:10:41;10.80;99.90
47765;DHT22;33529;49.242;8.670;2023-03-14T02:13:10;10.80;99.90
47765;DHT22;33529;49.242;8.670;2023-03-14T02:15:49;10.80;99.90
47765;DHT22;33529;49.242;8.670;2023-03-14T02:18:38;10.80;99.90
47765;DHT22;33529;49.242;8.670;2023-03-14T02:24:27;10.70;99.90
47765;DHT22;33529;49.242;8.670;2023-03-14T02:27:16;10.60;99.90
47765;DHT22;33529;49.242;8.670;2023-03-14T02:29:57;10.60;99.90
47765;DHT22;33529;49.242;8.670;2023-03-14T02:32:27;10.60;99.90
47765;DHT22;33529;49.242;8.670;2023-03-14T02:34:58;10.60;99.90
47765;DHT22;33529;49.242;8.670;2023-03-14T02:37:35;10.60;99.90
47765;DHT22;33529;49.242;8.670;2023-03-14T02:40:04;10.60;99.90
47765;DHT22;33529;49.242;8.670;2023-03-14T02:42:33;10.50;99.90
47765;DHT22;33529;49.242;8.670;2023-03-14T02:47:45;10.50;99.90
47765;DHT22;33529;49.242;8.670;2023-03-14T02:50:18;10.40;99.90
47765;DHT22;33529;49.242;8.670;2023-03-14T02:52:46;10.50;99.90
47765;DHT22;33529;49.242;8.670;2023-03-14T02:55:13;10.50;99.90
47765;DHT22;33529;49.242;8.670;2023-03-14T02:57:43;10.40;99.90
47765;DHT22;33529;49.242;8.670;2023-03-14T03:00:11;10.40;99.90
47765;DHT22;33529;49.242;8.670;2023-03-14T03:02:38;10.30;99.90
47765;DHT22;33529;49.242;8.670;2023-03-14T03:05:05;10.30;99.90
47765;DHT22;33529;49.242;8.670;2023-03-14T03:07:32;10.30;99.90
47765;DHT22;33529;49.242;8.670;2023-03-14T03:09:59;10.30;99.90
47765;DHT22;33529;49.242;8.670;2023-03-14T03:12:26;10.30;99.90
47765;DHT22;33529;49.242;8.670;2023-03-14T03:14:53;10.30;99.90
47765;DHT22;33529;49.242;8.670;2023-03-14T03:17:20;10.20;99.90
47765;DHT22;33529;49.242;8.670;2023-03-14T03:19:46;10.30;99.90
47765;DHT22;33529;49.242;8.670;2023-03-14T03:22:13;10.30;99.90
47765;DHT22;33529;49.242;8.670;2023-03-14T03:24:40;10.30;99.90
47765;DHT22;33529;49.242;8.670;2023-03-14T03:27:07;10.40;99.90
47765;DHT22;33529;49.242;8.670;2023-03-14T03:29:35;10.40;99.90
47765;DHT22;33529;49.242;8.670;2023-03-14T03:32:02;10.40;99.90
47765;DHT22;33529;49.242;8.670;2023-03-14T03:34:29;10.30;99.90
47765;DHT22;33529;49.242;8.670;2023-03-14T03:36:57;10.30;99.90
47765;DHT22;33529;49.242;8.670;2023-03-14T03:39:25;10.20;99.90
47765;DHT22;33529;49.242;8.670;2023-03-14T03:41:52;10.10;99.90
47765;DHT22;33529;49.242;8.670;2023-03-14T03:44:19;10.10;99.90
47765;DHT22;33529;49.242;8.670;2023-03-14T03:46:46;10.00;99.90
47765;DHT22;33529;49.242;8.670;2023-03-14T03:49:13;10.00;99.90
47765;DHT22;33529;49.242;8.670;2023-03-14T03:51:40;10.00;99.90
47765;DHT22;33529;49.242;8.670;2023-03-14T03:54:07;10.10;99.90
47765;DHT22;33529;49.242;8.670;2023-03-14T03:56:34;10.10;99.90
47765;DHT22;33529;49.242;8.670;2023-03-14T03:59:01;10.10;99.90
47765;DHT22;33529;49.242;8.670;2023-03-14T04:01:28;10.20;99.90
47765;DHT22;33529;49.242;8.670;2023-03-14T04:03:57;10.10;99.90
47765;DHT22;33529;49.242;8.670;2023-03-14T04:06:25;10.10;99.90
47765;DHT22;33529;49.242;8.670;2023-03-14T04:08:54;10.10;99.90
47765;DHT22;33529;49.242;8.670;2023-03-14T04:11:31;10.00;99.90
47765;DHT22;33529;49.242;8.670;2023-03-14T04:14:07;10.00;99.90
47765;DHT22;33529;49.242;8.670;2023-03-14T04:16:35;10.10;99.90
47765;DHT22;33529;49.242;8.670;2023-03-14T04:19:11;10.10;99.90
47765;DHT22;33529;49.242;8.670;2023-03-14T04:21:37;10.10;99.90
47765;DHT22;33529;49.242;8.670;2023-03-14T04:24:09;10.20;99.90
47765;DHT22;33529;49.242;8.670;2023-03-14T04:26:36;10.20;99.90
47765;DHT22;33529;49.242;8.670;2023-03-14T04:29:03;10.20;99.90
47765;DHT22;33529;49.242;8.670;2023-03-14T04:31:30;10.10;99.90
47765;DHT22;33529;49.242;8.670;2023-03-14T04:33:57;10.10;99.90
47765;DHT22;33529;49.242;8.670;2023-03-14T04:36:31;10.10;99.90
47765;DHT22;33529;49.242;8.670;2023-03-14T04:39:02;10.20;99.90
47765;DHT22;33529;49.242;8.670;2023-03-14T04:41:31;10.20;99.90
47765;DHT22;33529;49.242;8.670;2023-03-14T04:43:58;10.20;99.90
47765;DHT22;33529;49.242;8.670;2023-03-14T04:46:26;10.20;99.90
47765;DHT22;33529;49.242;8.670;2023-03-14T04:48:53;10.10;99.90
47765;DHT22;33529;49.242;8.670;2023-03-14T04:51:19;10.10;99.90
47765;DHT22;33529;49.242;8.670;2023-03-14T04:53:49;10.10;99.90
47765;DHT22;33529;49.242;8.670;2023-03-14T04:56:16;10.10;99.90
47765;DHT22;33529;49.242;8.670;2023-03-14T04:58:43;10.00;99.90
47765;DHT22;33529;49.242;8.670;2023-03-14T05:01:13;10.00;99.90
47765;DHT22;33529;49.242;8.670;2023-03-14T05:04:09;9.90;99.90
47765;DHT22;33529;49.242;8.670;2023-03-14T05:06:54;9.90;99.90
47765;DHT22;33529;49.242;8.670;2023-03-14T05:09:45;9.90;99.90
47765;DHT22;33529;49.242;8.670;2023-03-14T05:12:23;9.90;99.90
47765;DHT22;33529;49.242;8.670;2023-03-14T05:14:55;10.00;99.90
47765;DHT22;33529;49.242;8.670;2023-03-14T05:17:42;10.10;99.90
47765;DHT22;33529;49.242;8.670;2023-03-14T05:20:41;10.20;99.90
47765;DHT22;33529;49.242;8.670;2023-03-14T05:23:25;10.20;99.90
47765;DHT22;33529;49.242;8.670;2023-03-14T05:26:03;10.20;99.90
47765;DHT22;33529;49.242;8.670;2023-03-14T05:28:37;10.30;99.90
47765;DHT22;33529;49.242;8.670;2023-03-14T05:31:11;10.30;99.90
47765;DHT22;33529;49.242;8.670;2023-03-14T05:33:41;10.30;99.90
47765;DHT22;33529;49.242;8.670;2023-03-14T05:36:28;10.40;99.90
47765;DHT22;33529;49.242;8.670;2023-03-14T05:39:05;10.30;99.90
47765;DHT22;33529;49.242;8.670;2023-03-14T05:41:40;10.30;99.90
47765;DHT22;33529;49.242;8.670;2023-03-14T05:44:30;10.30;99.90
47765;DHT22;33529;49.242;8.670;2023-03-14T05:47:00;10.30;99.90
47765;DHT22;33529;49.242;8.670;2023-03-14T05:49:51;10.40;99.90
47765;DHT22;33529;49.242;8.670;2023-03-14T05:52:45;10.30;99.90
47765;DHT22;33529;49.242;8.670;2023-03-14T05:55:42;10.30;99.90
47765;DHT22;33529;49.242;8.670;2023-03-14T05:58:17;10.20;99.90
47765;DHT22;33529;49.242;8.670;2023-03-14T06:00:44;10.20;99.90
47765;DHT22;33529;49.242;8.670;2023-03-14T06:03:29;10.20;99.90
47765;DHT22;33529;49.242;8.670;2023-03-14T06:05:56;10.30;99.90
47765;DHT22;33529;49.242;8.670;2023-03-14T06:08:23;10.20;99.90
47765;DHT22;33529;49.242;8.670;2023-03-14T06:10:52;10.20;99.90
47765;DHT22;33529;49.242;8.670;2023-03-14T06:13:24;10.20;99.90
47765;DHT22;33529;49.242;8.670;2023-03-14T06:15:51;10.20;99.90
47765;DHT22;33529;49.242;8.670;2023-03-14T06:18:18;10.30;99.90
47765;DHT22;33529;49.242;8.670;2023-03-14T06:20:45;10.30;99.90
47765;DHT22;33529;49.242;8.670;2023-03-14T06:23:20;10.40;99.90
47765;DHT22;33529;49.242;8.670;2023-03-14T06:25:47;10.40;99.90
47765;DHT22;33529;49.242;8.670;2023-03-14T06:28:14;10.40;99.90
47765;DHT22;33529;49.242;8.670;2023-03-14T06:30:41;10.30;99.90
47765;DHT22;33529;49.242;8.670;2023-03-14T06:33:10;10.30;99.90
47765;DHT22;33529;49.242;8.670;2023-03-14T06:35:38;10.40;99.90
47765;DHT22;33529;49.242;8.670;2023-03-14T06:38:04;10.50;99.90
47765;DHT22;33529;49.242;8.670;2023-03-14T06:40:31;10.50;99.90
47765;DHT22;33529;49.242;8.670;2023-03-14T06:43:04;10.50;99.90
47765;DHT22;33529;49.242;8.670;2023-03-14T06:45:32;10.60;99.90
47765;DHT22;33529;49.242;8.670;2023-03-14T06:48:01;10.60;99.90
47765;DHT22;33529;49.242;8.670;2023-03-14T06:50:39;10.70;99.90
47765;DHT22;33529;49.242;8.670;2023-03-14T06:53:06;10.60;99.90
47765;DHT22;33529;49.242;8.670;2023-03-14T06:55:36;10.60;99.90
47765;DHT22;33529;49.242;8.670;2023-03-14T06:58:03;10.60;99.90
47765;DHT22;33529;49.242;8.670;2023-03-14T07:00:34;10.70;99.90
47765;DHT22;33529;49.242;8.670;2023-03-14T07:03:01;10.70;99.90
47765;DHT22;33529;49.242;8.670;2023-03-14T07:05:32;10.70;99.90
47765;DHT22;33529;49.242;8.670;2023-03-14T07:07:59;10.70;99.90
47765;DHT22;33529;49.242;8.670;2023-03-14T07:10:26;10.70;99.90
47765;DHT22;33529;49.242;8.670;2023-03-14T07:12:53;10.70;99.90
47765;DHT22;33529;49.242;8.670;2023-03-14T07:15:23;10.70;99.90
47765;DHT22;33529;49.242;8.670;2023-03-14T07:17:55;10.70;99.90
47765;DHT22;33529;49.242;8.670;2023-03-14T07:20:23;10.70;99.90
47765;DHT22;33529;49.242;8.670;2023-03-14T07:22:50;10.70;99.90
47765;DHT22;33529;49.242;8.670;2023-03-14T07:25:24;10.70;99.90
47765;DHT22;33529;49.242;8.670;2023-03-14T07:27:52;10.70;99.90
47765;DHT22;33529;49.242;8.670;2023-03-14T07:30:19;10.80;99.90
47765;DHT22;33529;49.242;8.670;2023-03-14T07:32:46;10.90;99.90
47765;DHT22;33529;49.242;8.670;2023-03-14T07:35:13;10.90;99.90
47765;DHT22;33529;49.242;8.670;2023-03-14T07:37:41;10.90;99.90
47765;DHT22;33529;49.242;8.670;2023-03-14T07:40:09;10.90;99.90
47765;DHT22;33529;49.242;8.670;2023-03-14T07:42:37;10.90;99.90
47765;DHT22;33529;49.242;8.670;2023-03-14T07:45:14;11.00;99.90
47765;DHT22;33529;49.242;8.670;2023-03-14T07:47:41;11.00;99.90
47765;DHT22;33529;49.242;8.670;2023-03-14T07:50:09;11.00;99.90
47765;DHT22;33529;49.242;8.670;2023-03-14T07:52:36;11.10;99.90
47765;DHT22;33529;49.242;8.670;2023-03-14T07:55:03;11.20;99.90
47765;DHT22;33529;49.242;8.670;2023-03-14T07:57:29;11.20;99.90
47765;DHT22;33529;49.242;8.670;2023-03-14T07:59:56;11.30;99.90
47765;DHT22;33529;49.242;8.670;2023-03-14T08:02:23;11.30;99.90
47765;DHT22;33529;49.242;8.670;2023-03-14T08:04:50;11.40;99.90
47765;DHT22;33529;49.242;8.670;2023-03-14T08:07:17;11.40;99.90
47765;DHT22;33529;49.242;8.670;2023-03-14T08:09:44;11.40;99.90
47765;DHT22;33529;49.242;8.670;2023-03-14T08:12:11;11.40;99.90
47765;DHT22;33529;49.242;8.670;2023-03-14T08:14:37;11.40;99.90
47765;DHT22;33529;49.242;8.670;2023-03-14T08:17:04;11.50;99.90
47765;DHT22;33529;49.242;8.670;2023-03-14T08:19:31;11.60;99.90
47765;DHT22;33529;49.242;8.670;2023-03-14T08:21:58;11.70;99.90
47765;DHT22;33529;49.242;8.670;2023-03-14T08:24:25;11.80;99.90
47765;DHT22;33529;49.242;8.670;2023-03-14T08:26:52;11.80;99.90
47765;DHT22;33529;49.242;8.670;2023-03-14T08:29:18;11.80;99.90
47765;DHT22;33529;49.242;8.670;2023-03-14T08:31:46;11.90;99.90
47765;DHT22;33529;49.242;8.670;2023-03-14T08:34:12;12.00;99.90
47765;DHT22;33529;49.242;8.670;2023-03-14T08:36:39;11.90;99.90
47765;DHT22;33529;49.242;8.670;2023-03-14T08:39:06;12.00;99.90
47765;DHT22;33529;49.242;8.670;2023-03-14T08:41:34;12.00;99.90
47765;DHT22;33529;49.242;8.670;2023-03-14T08:44:10;12.10;99.90
47765;DHT22;33529;49.242;8.670;2023-03-14T08:46:42;12.10;99.90
47765;DHT22;33529;49.242;8.670;2023-03-14T08:49:09;12.20;99.90
47765;DHT22;33529;49.242;8.670;2023-03-14T08:51:36;12.10;99.90
47765;DHT22;33529;49.242;8.670;2023-03-14T08:54:03;12.10;99.90
47765;DHT22;33529;49.242;8.670;2023-03-14T08:56:30;12.10;99.90
47765;DHT22;33529;49.242;8.670;2023-03-14T08:58:57;12.10;99.90
47765;DHT22;33529;49.242;8.670;2023-03-14T09:01:23;12.00;99.90
47765;DHT22;33529;49.242;8.670;2023-03-14T09:03:51;12.10;99.90
47765;DHT22;33529;49.242;8.670;2023-03-14T09:06:18;12.10;99.90
47765;DHT22;33529;49.242;8.670;2023-03-14T09:08:45;12.30;99.90
47765;DHT22;33529;49.242;8.670;2023-03-14T09:11:13;12.50;99.90
47765;DHT22;33529;49.242;8.670;2023-03-14T09:13:40;12.80;99.90
47765;DHT22;33529;49.242;8.670;2023-03-14T09:16:07;12.60;99.90
47765;DHT22;33529;49.242;8.670;2023-03-14T09:18:35;12.60;99.90
47765;DHT22;33529;49.242;8.670;2023-03-14T09:21:03;12.40;99.90
47765;DHT22;33529;49.242;8.670;2023-03-14T09:23:30;12.20;99.90
47765;DHT22;33529;49.242;8.670;2023-03-14T09:25:58;12.20;99.90
47765;DHT22;33529;49.242;8.670;2023-03-14T09:28:26;12.10;99.90
47765;DHT22;33529;49.242;8.670;2023-03-14T09:30:53;12.00;99.90
47765;DHT22;33529;49.242;8.670;2023-03-14T09:33:21;12.00;99.90
47765;DHT22;33529;49.242;8.670;2023-03-14T09:35:48;12.00;99.90
47765;DHT22;33529;49.242;8.670;2023-03-14T09:38:14;12.10;99.90
47765;DHT22;33529;49.242;8.670;2023-03-14T09:40:42;12.20;99.90
47765;DHT22;33529;49.242;8.670;2023-03-14T09:43:11;12.40;99.90
47765;DHT22;33529;49.242;8.670;2023-03-14T09:45:41;12.50;99.90
47765;DHT22;33529;49.242;8.670;2023-03-14T09:48:26;12.70;99.90
47765;DHT22;33529;49.242;8.670;2023-03-14T09:50:58;12.80;99.90
47765;DHT22;33529;49.242;8.670;2023-03-14T09:56:28;12.50;99.90
47765;DHT22;33529;49.242;8.670;2023-03-14T09:59:00;12.40;99.90
47765;DHT22;33529;49.242;8.670;2023-03-14T10:01:31;12.40;99.90
47765;DHT22;33529;49.242;8.670;2023-03-14T10:04:09;12.40;99.90
47765;DHT22;33529;49.242;8.670;2023-03-14T10:06:37;12.40;99.90
47765;DHT22;33529;49.242;8.670;2023-03-14T10:09:03;12.60;99.90
47765;DHT22;33529;49.242;8.670;2023-03-14T10:11:32;12.40;99.90
47765;DHT22;33529;49.242;8.670;2023-03-14T10:14:08;12.30;99.90
47765;DHT22;33529;49.242;8.670;2023-03-14T10:16:45;12.30;99.90
47765;DHT22;33529;49.242;8.670;2023-03-14T10:19:14;12.10;99.90
47765;DHT22;33529;49.242;8.670;2023-03-14T10:21:43;12.20;99.90
47765;DHT22;33529;49.242;8.670;2023-03-14T10:24:26;12.20;99.90
47765;DHT22;33529;49.242;8.670;2023-03-14T10:27:05;12.30;99.90
47765;DHT22;33529;49.242;8.670;2023-03-14T10:29:33;12.20;99.90
47765;DHT22;33529;49.242;8.670;2023-03-14T10:32:03;12.20;99.90
47765;DHT22;33529;49.242;8.670;2023-03-14T10:34:36;12.20;99.90
47765;DHT22;33529;49.242;8.670;2023-03-14T10:37:24;12.10;99.90
47765;DHT22;33529;49.242;8.670;2023-03-14T10:39:55;12.00;99.90
47765;DHT22;33529;49.242;8.670;2023-03-14T10:42:29;11.90;99.90
47765;DHT22;33529;49.242;8.670;2023-03-14T10:45:10;11.80;99.90
47765;DHT22;33529;49.242;8.670;2023-03-14T10:47:49;11.50;99.90
47765;DHT22;33529;49.242;8.670;2023-03-14T10:50:27;11.40;99.90
47765;DHT22;33529;49.242;8.670;2023-03-14T10:52:55;11.40;99.90
47765;DHT22;33529;49.242;8.670;2023-03-14T10:55:40;11.30;99.90
47765;DHT22;33529;49.242;8.670;2023-03-14T10:58:28;11.40;99.90
47765;DHT22;33529;49.242;8.670;2023-03-14T11:03:34;11.30;99.90
47765;DHT22;33529;49.242;8.670;2023-03-14T11:06:12;11.30;99.90
47765;DHT22;33529;49.242;8.670;2023-03-14T11:08:57;11.20;99.90
47765;DHT22;33529;49.242;8.670;2023-03-14T11:11:30;11.00;99.90
47765;DHT22;33529;49.242;8.670;2023-03-14T11:27:22;10.50;99.90
47765;DHT22;33529;49.242;8.670;2023-03-14T11:33:14;10.40;99.90
47765;DHT22;33529;49.242;8.670;2023-03-14T11:35:59;10.40;99.90
47765;DHT22;33529;49.242;8.670;2023-03-14T11:38:43;10.50;99.90
47765;DHT22;33529;49.242;8.670;2023-03-14T11:43:48;10.50;99.90
47765;DHT22;33529;49.242;8.670;2023-03-14T11:46:23;10.50;99.90
47765;DHT22;33529;49.242;8.670;2023-03-14T11:48:55;10.40;99.90
47765;DHT22;33529;49.242;8.670;2023-03-14T11:51:28;10.30;99.90
47765;DHT22;33529;49.242;8.670;2023-03-14T11:54:11;10.30;99.90
47765;DHT22;33529;49.242;8.670;2023-03-14T11:56:45;10.40;99.90
47765;DHT22;33529;49.242;8.670;2023-03-14T11:59:17;10.40;99.90
47765;DHT22;33529;49.242;8.670;2023-03-14T12:02:02;10.40;99.90
47765;DHT22;33529;49.242;8.670;2023-03-14T12:05:04;10.40;99.90
47765;DHT22;33529;49.242;8.670;2023-03-14T12:07:49;10.20;99.90
47765;DHT22;33529;49.242;8.670;2023-03-14T12:10:20;10.20;99.90
47765;DHT22;33529;49.242;8.670;2023-03-14T12:12:47;10.20;99.90
47765;DHT22;33529;49.242;8.670;2023-03-14T12:15:21;10.10;99.90
47765;DHT22;33529;49.242;8.670;2023-03-14T12:17:55;10.10;99.90
47765;DHT22;33529;49.242;8.670;2023-03-14T12:20:24;10.00;99.90
47765;DHT22;33529;49.242;8.670;2023-03-14T12:22:55;9.90;99.90
47765;DHT22;33529;49.242;8.670;2023-03-14T12:25:25;9.80;99.90
47765;DHT22;33529;49.242;8.670;2023-03-14T12:30:30;9.60;99.90
47765;DHT22;33529;49.242;8.670;2023-03-14T12:36:20;9.70;99.90
47765;DHT22;33529;49.242;8.670;2023-03-14T12:41:13;9.60;99.90
47765;DHT22;33529;49.242;8.670;2023-03-14T12:43:41;9.60;99.90
47765;DHT22;33529;49.242;8.670;2023-03-14T12:46:22;9.50;99.90
47765;DHT22;33529;49.242;8.670;2023-03-14T12:48:54;9.40;99.90
47765;DHT22;33529;49.242;8.670;2023-03-14T12:54:13;9.10;99.90
47765;DHT22;33529;49.242;8.670;2023-03-14T12:59:35;9.10;99.90
47765;DHT22;33529;49.242;8.670;2023-03-14T13:04:44;9.30;99.90
47765;DHT22;33529;49.242;8.670;2023-03-14T13:10:30;9.80;99.90
47765;DHT22;33529;49.242;8.670;2023-03-14T13:13:24;10.00;99.90
47765;DHT22;33529;49.242;8.670;2023-03-14T13:15:57;10.30;99.90
47765;DHT22;33529;49.242;8.670;2023-03-14T13:18:44;10.40;99.90
47765;DHT22;33529;49.242;8.670;2023-03-14T13:21:20;10.60;99.90
47765;DHT22;33529;49.242;8.670;2023-03-14T13:24:07;10.70;99.90
47765;DHT22;33529;49.242;8.670;2023-03-14T13:26:39;10.70;99.90
47765;DHT22;33529;49.242;8.670;2023-03-14T13:31:54;11.20;99.90
47765;DHT22;33529;49.242;8.670;2023-03-14T13:34:21;11.10;99.90
47765;DHT22;33529;49.242;8.670;2023-03-14T13:36:52;10.80;99.90
47765;DHT22;33529;49.242;8.670;2023-03-14T13:39:21;10.50;99.90
47765;DHT22;33529;49.242;8.670;2023-03-14T13:41:52;10.20;99.90
47765;DHT22;33529;49.242;8.670;2023-03-14T13:44:29;10.20;99.90
47765;DHT22;33529;49.242;8.670;2023-03-14T13:47:05;10.10;99.90
47765;DHT22;33529;49.242;8.670;2023-03-14T13:49:33;9.90;99.90
47765;DHT22;33529;49.242;8.670;2023-03-14T13:52:03;9.70;99.90
47765;DHT22;33529;49.242;8.670;2023-03-14T13:54:31;9.70;99.90
47765;DHT22;33529;49.242;8.670;2023-03-14T13:57:03;9.70;99.90
47765;DHT22;33529;49.242;8.670;2023-03-14T13:59:32;9.70;99.90
47765;DHT22;33529;49.242;8.670;2023-03-14T14:02:03;9.60;99.90
47765;DHT22;33529;49.242;8.670;2023-03-14T14:04:32;9.70;99.90
47765;DHT22;33529;49.242;8.670;2023-03-14T14:07:00;9.70;99.90
47765;DHT22;33529;49.242;8.670;2023-03-14T14:09:31;9.80;99.90
47765;DHT22;33529;49.242;8.670;2023-03-14T14:17:16;9.90;99.90
47765;DHT22;33529;49.242;8.670;2023-03-14T14:19:45;9.80;99.90
47765;DHT22;33529;49.242;8.670;2023-03-14T14:22:13;9.60;99.80
47765;DHT22;33529;49.242;8.670;2023-03-14T14:24:40;9.60;99.90
47765;DHT22;33529;49.242;8.670;2023-03-14T14:27:27;9.50;99.90
47765;DHT22;33529;49.242;8.670;2023-03-14T14:30:04;9.50;99.90
47765;DHT22;33529;49.242;8.670;2023-03-14T14:32:39;9.60;99.90
47765;DHT22;33529;49.242;8.670;2023-03-14T14:35:08;9.70;99.90
47765;DHT22;33529;49.242;8.670;2023-03-14T14:37:44;9.90;99.90
47765;DHT22;33529;49.242;8.670;2023-03-14T14:40:22;10.00;97.60
47765;DHT22;33529;49.242;8.670;2023-03-14T14:42:50;10.00;99.50
47765;DHT22;33529;49.242;8.670;2023-03-14T14:45:24;10.00;98.10
47765;DHT22;33529;49.242;8.670;2023-03-14T14:47:57;9.90;96.60
47765;DHT22;33529;49.242;8.670;2023-03-14T14:50:48;9.80;97.30
47765;DHT22;33529;49.242;8.670;2023-03-14T14:53:22;9.70;97.20
47765;DHT22;33529;49.242;8.670;2023-03-14T14:55:55;9.80;98.00
47765;DHT22;33529;49.242;8.670;2023-03-14T14:58:36;9.80;97.10
47765;DHT22;33529;49.242;8.670;2023-03-14T15:01:11;9.80;97.30
47765;DHT22;33529;49.242;8.670;2023-03-14T15:03:45;9.90;96.50
47765;DHT22;33529;49.242;8.670;2023-03-14T15:06:14;9.90;95.40
47765;DHT22;33529;49.242;8.670;2023-03-14T15:08:46;9.90;96.30
47765;DHT22;33529;49.242;8.670;2023-03-14T15:11:22;10.00;95.80
47765;DHT22;33529;49.242;8.670;2023-03-14T15:13:50;10.00;95.50
47765;DHT22;33529;49.242;8.670;2023-03-14T15:16:20;10.00;95.00
47765;DHT22;33529;49.242;8.670;2023-03-14T15:18:53;10.00;94.40
47765;DHT22;33529;49.242;8.670;2023-03-14T15:21:22;10.00;94.00
47765;DHT22;33529;49.242;8.670;2023-03-14T15:23:50;10.00;97.30
47765;DHT22;33529;49.242;8.670;2023-03-14T15:26:22;10.10;96.00
47765;DHT22;33529;49.242;8.670;2023-03-14T15:28:49;10.30;94.90
47765;DHT22;33529;49.242;8.670;2023-03-14T15:31:18;10.30;94.70
47765;DHT22;33529;49.242;8.670;2023-03-14T15:33:46;10.30;94.20
47765;DHT22;33529;49.242;8.670;2023-03-14T15:36:25;10.10;95.10
47765;DHT22;33529;49.242;8.670;2023-03-14T15:38:53;10.00;95.20
47765;DHT22;33529;49.242;8.670;2023-03-14T15:41:22;9.90;94.90
47765;DHT22;33529;49.242;8.670;2023-03-14T15:43:49;10.10;93.90
47765;DHT22;33529;49.242;8.670;2023-03-14T15:46:17;10.00;95.90
47765;DHT22;33529;49.242;8.670;2023-03-14T15:48:45;10.10;95.20
47765;DHT22;33529;49.242;8.670;2023-03-14T15:51:12;10.10;95.10
47765;DHT22;33529;49.242;8.670;2023-03-14T15:53:39;10.10;96.10
47765;DHT22;33529;49.242;8.670;2023-03-14T15:56:07;10.00;97.00
47765;DHT22;33529;49.242;8.670;2023-03-14T15:58:37;9.90;97.20
47765;DHT22;33529;49.242;8.670;2023-03-14T16:01:08;9.70;97.30
47765;DHT22;33529;49.242;8.670;2023-03-14T16:03:38;9.60;98.80
47765;DHT22;33529;49.242;8.670;2023-03-14T16:06:05;9.50;98.40
47765;DHT22;33529;49.242;8.670;2023-03-14T16:08:32;9.40;99.40
47765;DHT22;33529;49.242;8.670;2023-03-14T16:11:00;9.40;99.00
47765;DHT22;33529;49.242;8.670;2023-03-14T16:13:28;9.40;97.70
47765;DHT22;33529;49.242;8.670;2023-03-14T16:16:00;9.40;98.20
47765;DHT22;33529;49.242;8.670;2023-03-14T16:18:29;9.40;98.60
47765;DHT22;33529;49.242;8.670;2023-03-14T16:21:01;9.40;99.10
47765;DHT22;33529;49.242;8.670;2023-03-14T16:23:28;9.40;98.20
47765;DHT22;33529;49.242;8.670;2023-03-14T16:25:56;9.40;99.60
47765;DHT22;33529;49.242;8.670;2023-03-14T16:28:24;9.40;99.50
47765;DHT22;33529;49.242;8.670;2023-03-14T16:30:51;9.40;98.60
47765;DHT22;33529;49.242;8.670;2023-03-14T16:33:18;9.30;99.50
47765;DHT22;33529;49.242;8.670;2023-03-14T16:35:59;9.30;99.90
47765;DHT22;33529;49.242;8.670;2023-03-14T16:38:35;9.30;98.40
47765;DHT22;33529;49.242;8.670;2023-03-14T16:41:25;9.30;99.70
47765;DHT22;33529;49.242;8.670;2023-03-14T16:43:55;9.20;99.80
47765;DHT22;33529;49.242;8.670;2023-03-14T16:46:22;9.20;99.90
47765;DHT22;33529;49.242;8.670;2023-03-14T16:48:51;9.30;99.90
47765;DHT22;33529;49.242;8.670;2023-03-14T16:51:18;9.20;99.90
47765;DHT22;33529;49.242;8.670;2023-03-14T16:53:45;9.20;99.90
47765;DHT22;33529;49.242;8.670;2023-03-14T16:56:13;9.10;99.10